Urb Mendez, Puerto Rico
Current Conditions -  °F | °C
As of 7:53 AM on Monday 24 Nov 2014 (Local Time) from TJNR Reporting Station
Clear Clear  
Wind Chill: 81°   Ceiling: Unl
Heat Index: 85°   Visibility: 10mi
Dew Point: 71°   Wind: 12mph
Humidity: 72%   Direction: 80°E
Pressure: 30.07"   Gusts: NA
Location:  18.0547°N, 65.8738°W
Report Text: TJNR 241153Z AUTO 08010KT 10SM CLR 27/22 A3007 RMK AO2 SLP182 60000 T02720217 10272 20250 53016 $
Loading
Personal Weather Stations






























Interactive Weather Map New forecast layout! Learn more

10-Day Weather Forecast

Advertisements
Track Severe Weather on mobile